createdAt,value
2016-10-24T00:00:35.966Z,0
2016-10-24T00:01:35.972Z,0
2016-10-24T00:02:36.037Z,0
2016-10-24T00:03:36.109Z,0
2016-10-24T00:04:36.205Z,0
2016-10-24T00:05:36.189Z,0
2016-10-24T00:06:36.279Z,0
2016-10-24T00:07:36.332Z,0
2016-10-24T00:08:36.380Z,0
2016-10-24T00:09:36.414Z,0
2016-10-24T00:10:36.514Z,0
2016-10-24T00:11:36.580Z,0
2016-10-24T00:12:36.592Z,0
2016-10-24T00:13:36.644Z,0
2016-10-24T00:14:36.692Z,0
2016-10-24T00:15:36.780Z,0
2016-10-24T00:16:36.834Z,0
2016-10-24T00:17:36.883Z,0
2016-10-24T00:18:36.897Z,0
2016-10-24T00:19:36.969Z,0
2016-10-24T00:20:37.042Z,0
2016-10-24T00:21:37.079Z,0
2016-10-24T00:22:37.143Z,0
2016-10-24T00:23:37.193Z,0
2016-10-24T00:24:37.240Z,0
2016-10-24T00:25:37.306Z,0
2016-10-24T00:26:37.363Z,0
2016-10-24T00:27:37.410Z,0
2016-10-24T00:28:37.471Z,0
2016-10-24T00:29:37.529Z,0
2016-10-24T00:30:37.605Z,0
2016-10-24T00:31:37.657Z,0
2016-10-24T00:32:37.734Z,0
2016-10-24T00:33:37.743Z,0
2016-10-24T00:34:37.823Z,0
2016-10-24T00:35:37.885Z,0
2016-10-24T00:36:37.906Z,0
2016-10-24T00:37:37.976Z,0
2016-10-24T00:38:38.028Z,0
2016-10-24T00:39:38.093Z,0
2016-10-24T00:40:38.145Z,0
2016-10-24T00:41:38.210Z,0
2016-10-24T00:42:38.243Z,0
2016-10-24T00:43:38.306Z,0
2016-10-24T00:44:38.383Z,0
2016-10-24T00:45:38.418Z,0
2016-10-24T00:46:38.475Z,0
2016-10-24T00:47:38.520Z,0
2016-10-24T00:48:38.569Z,0
2016-10-24T00:49:38.623Z,0
2016-10-24T00:50:38.686Z,0
2016-10-24T00:51:38.737Z,0
2016-10-24T00:52:38.791Z,0
2016-10-24T00:53:38.925Z,0
2016-10-24T00:54:38.907Z,0
2016-10-24T00:55:38.944Z,0
2016-10-24T00:56:39.030Z,0
2016-10-24T00:57:39.076Z,0
2016-10-24T00:58:39.111Z,0
2016-10-24T00:59:39.210Z,0
2016-10-24T01:00:39.226Z,0
2016-10-24T01:01:39.294Z,0
2016-10-24T01:02:39.350Z,0
2016-10-24T01:03:39.390Z,0
2016-10-24T01:04:39.452Z,0
2016-10-24T01:05:39.565Z,0
2016-10-24T01:06:39.574Z,0
2016-10-24T01:07:39.621Z,0
2016-10-24T01:08:39.687Z,0
2016-10-24T01:09:39.732Z,0
2016-10-24T01:10:39.786Z,0
2016-10-24T01:11:39.843Z,0
2016-10-24T01:12:39.894Z,0
2016-10-24T01:13:39.953Z,0
2016-10-24T01:14:40.024Z,0
2016-10-24T01:15:40.082Z,0
2016-10-24T01:16:40.136Z,0
2016-10-24T01:17:40.208Z,0
2016-10-24T01:18:40.240Z,0
2016-10-24T01:19:40.311Z,0
2016-10-24T01:20:40.352Z,0
2016-10-24T01:21:40.681Z,0
2016-10-24T01:22:40.448Z,0
2016-10-24T01:23:40.516Z,0
2016-10-24T01:24:40.603Z,0
2016-10-24T01:25:40.615Z,0
2016-10-24T01:26:40.680Z,0
2016-10-24T01:27:40.745Z,0
2016-10-24T01:28:40.831Z,0
2016-10-24T01:29:40.889Z,0
2016-10-24T01:30:40.867Z,0
2016-10-24T01:31:40.939Z,0
2016-10-24T01:32:41.010Z,0
2016-10-24T01:33:41.097Z,0
2016-10-24T01:34:41.094Z,0
2016-10-24T01:35:41.260Z,0
2016-10-24T01:36:41.235Z,0
2016-10-24T01:37:41.283Z,0
2016-10-24T01:38:41.339Z,0
2016-10-24T01:39:41.378Z,0
2016-10-24T01:40:41.555Z,0
2016-10-24T01:41:41.498Z,0
2016-10-24T01:42:41.565Z,0
2016-10-24T01:43:41.587Z,0
2016-10-24T01:44:41.680Z,0
2016-10-24T01:45:41.738Z,0
2016-10-24T01:46:41.761Z,0
2016-10-24T01:47:41.829Z,0
2016-10-24T01:48:41.904Z,0
2016-10-24T01:49:41.933Z,0
2016-10-24T01:50:41.993Z,0
2016-10-24T01:51:42.073Z,0
2016-10-24T01:52:42.092Z,0
2016-10-24T01:53:42.135Z,0
2016-10-24T01:54:42.237Z,0
2016-10-24T01:55:42.333Z,0
2016-10-24T01:56:42.322Z,0
2016-10-24T01:57:42.370Z,0
2016-10-24T01:58:42.410Z,0
2016-10-24T01:59:42.492Z,0
2016-10-24T02:00:42.557Z,0
2016-10-24T02:01:42.610Z,0
2016-10-24T02:02:42.631Z,0
2016-10-24T02:03:42.723Z,0
2016-10-24T02:04:42.810Z,0
2016-10-24T02:05:42.847Z,0
2016-10-24T02:06:42.877Z,0
2016-10-24T02:07:42.943Z,0
2016-10-24T02:08:42.991Z,0
2016-10-24T02:09:43.068Z,0
2016-10-24T02:10:43.110Z,0
2016-10-24T02:11:43.199Z,0
2016-10-24T02:12:43.201Z,0
2016-10-24T02:13:43.313Z,0
2016-10-24T02:14:43.314Z,0
2016-10-24T02:15:43.367Z,0
2016-10-24T02:16:43.640Z,0
2016-10-24T02:17:43.495Z,0
2016-10-24T02:18:43.534Z,0
2016-10-24T02:19:43.606Z,0
2016-10-24T02:20:43.657Z,0
2016-10-24T02:21:43.712Z,0
2016-10-24T02:22:43.731Z,0
2016-10-24T02:23:43.816Z,0
2016-10-24T02:24:43.916Z,0
2016-10-24T02:25:43.911Z,0
2016-10-24T02:26:44.015Z,0
2016-10-24T02:27:44.082Z,0
2016-10-24T02:28:44.078Z,0
2016-10-24T02:29:44.195Z,0
2016-10-24T02:30:44.191Z,0
2016-10-24T02:31:44.263Z,0
2016-10-24T02:32:44.317Z,0
2016-10-24T02:33:44.337Z,0
2016-10-24T02:34:44.416Z,0
2016-10-24T02:35:44.495Z,0
2016-10-24T02:36:44.540Z,0
2016-10-24T02:37:44.593Z,0
2016-10-24T02:38:44.644Z,0
2016-10-24T02:39:44.709Z,0
2016-10-24T02:40:44.775Z,0
2016-10-24T02:41:44.799Z,0
2016-10-24T02:42:45.175Z,0
2016-10-24T02:43:44.914Z,0
2016-10-24T02:44:44.984Z,0
2016-10-24T02:45:45.011Z,0
2016-10-24T02:46:45.086Z,0
2016-10-24T02:47:45.148Z,0
2016-10-24T02:48:45.204Z,0
2016-10-24T02:49:45.257Z,0
2016-10-24T02:50:45.276Z,0
2016-10-24T02:51:45.372Z,0
2016-10-24T02:52:45.409Z,0
2016-10-24T02:53:45.465Z,0
2016-10-24T02:54:45.508Z,0
2016-10-24T02:55:45.570Z,0
2016-10-24T02:56:45.657Z,0
2016-10-24T02:57:45.719Z,0
2016-10-24T02:58:45.755Z,0
2016-10-24T02:59:45.796Z,0
2016-10-24T03:00:45.897Z,0
2016-10-24T03:01:45.916Z,0
2016-10-24T03:02:45.954Z,0
2016-10-24T03:03:46.012Z,0
2016-10-24T03:04:46.078Z,0
2016-10-24T03:05:46.105Z,0
2016-10-24T03:06:46.186Z,0
2016-10-24T03:07:46.244Z,0
2016-10-24T03:08:46.295Z,0
2016-10-24T03:09:46.334Z,0
2016-10-24T03:10:46.415Z,0
2016-10-24T03:11:46.479Z,0
2016-10-24T03:12:46.520Z,0
2016-10-24T03:13:46.582Z,0
2016-10-24T03:14:46.607Z,0
2016-10-24T03:15:46.711Z,0
2016-10-24T03:16:46.747Z,0
2016-10-24T03:17:46.819Z,0
2016-10-24T03:18:46.842Z,0
2016-10-24T03:19:46.913Z,0
2016-10-24T03:20:46.937Z,0
2016-10-24T03:21:46.990Z,0
2016-10-24T03:22:47.081Z,0
2016-10-24T03:23:47.099Z,0
2016-10-24T03:24:47.225Z,0
2016-10-24T03:25:47.239Z,0
2016-10-24T03:26:47.300Z,0
2016-10-24T03:27:47.334Z,0
2016-10-24T03:28:47.414Z,0
2016-10-24T03:29:47.467Z,0
2016-10-24T03:30:47.510Z,0
2016-10-24T03:31:47.587Z,0
2016-10-24T03:32:47.929Z,0
2016-10-24T03:33:47.688Z,0
2016-10-24T03:34:47.749Z,0
2016-10-24T03:35:47.801Z,0
2016-10-24T03:36:47.843Z,0
2016-10-24T03:37:47.894Z,0
2016-10-24T03:38:47.961Z,0
2016-10-24T03:39:48.011Z,0
2016-10-24T03:40:48.069Z,0
2016-10-24T03:41:48.164Z,0
2016-10-24T03:42:48.225Z,0
2016-10-24T03:43:48.209Z,0
2016-10-24T03:44:48.359Z,0
2016-10-24T03:45:48.356Z,0
2016-10-24T03:46:48.386Z,0
2016-10-24T03:47:48.474Z,0
2016-10-24T03:48:48.493Z,0
2016-10-24T03:49:48.554Z,0
2016-10-24T03:50:48.614Z,0
2016-10-24T03:51:48.698Z,0
2016-10-24T03:52:48.743Z,0
2016-10-24T03:53:48.796Z,0
2016-10-24T03:54:48.816Z,0
2016-10-24T03:55:49.046Z,0
2016-10-24T03:56:48.931Z,0
2016-10-24T03:57:49.009Z,0
2016-10-24T03:58:49.067Z,0
2016-10-24T03:59:49.131Z,0
2016-10-24T04:00:49.171Z,0
2016-10-24T04:01:49.209Z,0
2016-10-24T04:02:49.305Z,0
2016-10-24T04:03:49.332Z,0
2016-10-24T04:04:49.405Z,0
2016-10-24T04:05:49.462Z,0
2016-10-24T04:06:49.492Z,0
2016-10-24T04:07:49.608Z,0
2016-10-24T04:08:49.599Z,0
2016-10-24T04:09:49.710Z,0
2016-10-24T04:10:49.718Z,0
2016-10-24T04:11:49.794Z,0
2016-10-24T04:12:49.834Z,0
2016-10-24T04:13:49.920Z,0
2016-10-24T04:14:49.939Z,0
2016-10-24T04:15:49.992Z,0
2016-10-24T04:16:50.098Z,0
2016-10-24T04:17:50.109Z,0
2016-10-24T04:18:50.166Z,0
2016-10-24T04:19:50.207Z,0
2016-10-24T04:20:50.276Z,0
2016-10-24T04:21:50.336Z,0
2016-10-24T04:22:50.411Z,0
2016-10-24T04:23:50.434Z,0
2016-10-24T04:24:50.519Z,0
2016-10-24T04:25:50.547Z,0
2016-10-24T04:26:50.625Z,0
2016-10-24T04:27:50.665Z,0
2016-10-24T04:28:50.723Z,0
2016-10-24T04:29:50.822Z,0
2016-10-24T04:30:50.857Z,0
2016-10-24T04:31:50.906Z,0
2016-10-24T04:32:50.961Z,0
2016-10-24T04:33:50.996Z,0
2016-10-24T04:34:51.062Z,0
2016-10-24T04:35:51.094Z,0
2016-10-24T04:36:51.184Z,0
2016-10-24T04:37:51.231Z,0
2016-10-24T04:38:51.281Z,0
2016-10-24T04:39:51.347Z,0
2016-10-24T04:40:51.377Z,0
2016-10-24T04:41:51.429Z,0
2016-10-24T04:42:51.497Z,0
2016-10-24T04:43:51.537Z,0
2016-10-24T04:44:51.614Z,0
2016-10-24T04:45:51.665Z,0
2016-10-24T04:46:51.736Z,0
2016-10-24T04:47:51.789Z,0
2016-10-24T04:48:51.856Z,0
2016-10-24T04:49:51.898Z,0
2016-10-24T04:50:51.954Z,0
2016-10-24T04:51:51.984Z,0
2016-10-24T04:52:52.051Z,0
2016-10-24T04:53:52.124Z,0
2016-10-24T04:54:52.163Z,0
2016-10-24T04:55:52.237Z,0
2016-10-24T04:56:52.286Z,0
2016-10-24T04:57:52.350Z,0
2016-10-24T04:58:52.397Z,0
2016-10-24T04:59:52.448Z,0
2016-10-24T05:00:52.471Z,0
2016-10-24T05:01:52.563Z,0
2016-10-24T05:02:52.610Z,0
2016-10-24T05:03:52.656Z,0
2016-10-24T05:04:52.724Z,0
2016-10-24T05:05:52.789Z,0
2016-10-24T05:06:52.844Z,0
2016-10-24T05:07:52.913Z,0
2016-10-24T05:08:52.936Z,0
2016-10-24T05:09:52.999Z,0
2016-10-24T05:10:53.052Z,0
2016-10-24T05:11:53.102Z,0
2016-10-24T05:12:53.175Z,0
2016-10-24T05:13:53.230Z,0
2016-10-24T05:14:53.268Z,0
2016-10-24T05:15:53.338Z,0
2016-10-24T05:16:53.380Z,0
2016-10-24T05:17:53.433Z,0
2016-10-24T05:18:53.485Z,0
2016-10-24T05:19:53.555Z,0
2016-10-24T05:20:53.591Z,0
2016-10-24T05:21:53.668Z,0
2016-10-24T05:22:53.726Z,0
2016-10-24T05:23:53.744Z,0
2016-10-24T05:24:53.812Z,0
2016-10-24T05:25:53.882Z,0
2016-10-24T05:26:53.933Z,0
2016-10-24T05:27:53.971Z,0
2016-10-24T05:28:54.055Z,0
2016-10-24T05:29:54.116Z,0
2016-10-24T05:30:54.154Z,0
2016-10-24T05:31:54.216Z,0
2016-10-24T05:32:54.280Z,0
2016-10-24T05:33:54.339Z,0
2016-10-24T05:34:54.370Z,0
2016-10-24T05:35:54.411Z,0
2016-10-24T05:36:54.513Z,0
2016-10-24T05:37:54.584Z,0
2016-10-24T05:38:54.596Z,0
2016-10-24T05:39:54.672Z,0
2016-10-24T05:40:54.714Z,0
2016-10-24T05:41:54.775Z,0
2016-10-24T05:42:54.831Z,0
2016-10-24T05:43:54.865Z,0
2016-10-24T05:44:54.928Z,0
2016-10-24T05:45:55.010Z,0
2016-10-24T05:46:55.057Z,0
2016-10-24T05:47:55.167Z,0
2016-10-24T05:48:55.140Z,0
2016-10-24T05:49:55.229Z,0
2016-10-24T05:50:55.242Z,0
2016-10-24T05:51:55.325Z,0
2016-10-24T05:52:55.375Z,0
2016-10-24T05:53:55.441Z,0
2016-10-24T05:54:55.486Z,0
2016-10-24T05:55:55.547Z,0
2016-10-24T05:56:55.594Z,0
2016-10-24T05:57:55.636Z,0
2016-10-24T05:58:55.699Z,0
2016-10-24T05:59:55.771Z,0
2016-10-24T06:00:55.811Z,0
2016-10-24T06:01:56.175Z,0
2016-10-24T06:02:55.939Z,0
2016-10-24T06:03:55.972Z,0
2016-10-24T06:04:56.039Z,0
2016-10-24T06:05:56.080Z,0
2016-10-24T06:06:56.134Z,0
2016-10-24T06:07:56.205Z,0
2016-10-24T06:08:56.224Z,0
2016-10-24T06:09:56.295Z,0
2016-10-24T06:10:56.372Z,0
2016-10-24T06:11:56.405Z,0
2016-10-24T06:12:56.474Z,0
2016-10-24T06:13:56.525Z,0
2016-10-24T06:14:56.639Z,0
2016-10-24T06:15:56.640Z,0
2016-10-24T06:16:56.685Z,0
2016-10-24T06:17:56.752Z,0
2016-10-24T06:18:56.807Z,0
2016-10-24T06:19:56.851Z,0
2016-10-24T06:20:56.933Z,5
2016-10-24T06:21:56.982Z,5
2016-10-24T06:22:57.039Z,5
2016-10-24T06:23:57.078Z,5
2016-10-24T06:24:57.134Z,5
2016-10-24T06:25:57.199Z,5
2016-10-24T06:26:57.251Z,5
2016-10-24T06:27:57.299Z,5
2016-10-24T06:28:57.359Z,5
2016-10-24T06:29:57.390Z,5
2016-10-24T06:30:57.481Z,5
2016-10-24T06:31:57.546Z,5
2016-10-24T06:32:57.561Z,5
2016-10-24T06:33:57.643Z,5
2016-10-24T06:34:57.670Z,5
2016-10-24T06:35:57.737Z,5
2016-10-24T06:36:57.804Z,10
2016-10-24T06:37:57.827Z,10
2016-10-24T06:38:57.927Z,10
2016-10-24T06:39:57.932Z,10
2016-10-24T06:40:57.984Z,10
2016-10-24T06:41:58.091Z,10
2016-10-24T06:42:58.130Z,10
2016-10-24T06:43:58.213Z,10
2016-10-24T06:44:58.240Z,10
2016-10-24T06:45:58.292Z,10
2016-10-24T06:46:58.471Z,10
2016-10-24T06:47:58.405Z,10
2016-10-24T06:48:58.439Z,10
2016-10-24T06:49:58.498Z,10
2016-10-24T06:50:58.549Z,10
2016-10-24T06:51:58.602Z,10
2016-10-24T06:52:58.695Z,10
2016-10-24T06:53:58.754Z,10
2016-10-24T06:54:58.768Z,10
2016-10-24T06:55:58.845Z,10
2016-10-24T06:56:58.901Z,10
2016-10-24T06:57:58.962Z,10
2016-10-24T06:58:59.007Z,10
2016-10-24T06:59:59.068Z,10
2016-10-24T07:00:59.103Z,10
2016-10-24T07:01:59.164Z,10
2016-10-24T07:02:59.245Z,10
2016-10-24T07:03:59.283Z,10
2016-10-24T07:04:59.342Z,10
2016-10-24T07:05:59.411Z,10
2016-10-24T07:06:59.459Z,15
2016-10-24T07:07:59.496Z,15
2016-10-24T07:08:59.541Z,15
2016-10-24T07:09:59.582Z,15
2016-10-24T07:10:59.665Z,15
2016-10-24T07:11:59.711Z,15
2016-10-24T07:12:59.778Z,15
2016-10-24T07:13:59.831Z,15
2016-10-24T07:14:59.874Z,15
2016-10-24T07:15:59.927Z,15
2016-10-24T07:16:59.984Z,15
2016-10-24T07:18:00.060Z,15
2016-10-24T07:19:00.130Z,15
2016-10-24T07:20:00.159Z,20
2016-10-24T07:21:00.228Z,20
2016-10-24T07:22:00.281Z,25
2016-10-24T07:23:00.337Z,25
2016-10-24T07:24:00.364Z,30
2016-10-24T07:25:00.420Z,25
2016-10-24T07:26:00.506Z,25
2016-10-24T07:27:00.554Z,25
2016-10-24T07:28:00.619Z,30
2016-10-24T07:29:00.664Z,25
2016-10-24T07:30:00.701Z,25
2016-10-24T07:31:00.773Z,25
2016-10-24T07:32:00.834Z,25
2016-10-24T07:33:00.885Z,25
2016-10-24T07:34:00.947Z,25
2016-10-24T07:35:01.009Z,25
2016-10-24T07:36:01.043Z,25
2016-10-24T07:37:01.092Z,25
2016-10-24T07:38:01.155Z,25
2016-10-24T07:39:01.236Z,25
2016-10-24T07:40:01.250Z,20
2016-10-24T07:41:01.301Z,20
2016-10-24T07:42:01.375Z,20
2016-10-24T07:43:01.442Z,20
2016-10-24T07:44:01.504Z,20
2016-10-24T07:45:01.544Z,25
2016-10-24T07:46:01.599Z,25
2016-10-24T07:47:01.664Z,30
2016-10-24T07:48:01.743Z,30
2016-10-24T07:49:01.774Z,20
2016-10-24T07:50:01.832Z,20
2016-10-24T07:51:01.871Z,25
2016-10-24T07:52:01.940Z,25
2016-10-24T07:53:02.004Z,25
2016-10-24T07:54:02.058Z,35
2016-10-24T07:55:02.090Z,35
2016-10-24T07:56:02.164Z,40
2016-10-24T07:57:02.229Z,40
2016-10-24T07:58:02.270Z,35
2016-10-24T07:59:02.322Z,35
2016-10-24T08:00:02.395Z,40
2016-10-24T08:01:02.453Z,40
2016-10-24T08:02:02.482Z,40
2016-10-24T08:03:02.526Z,40
2016-10-24T08:04:02.648Z,35
2016-10-24T08:05:02.666Z,30
2016-10-24T08:06:02.707Z,35
2016-10-24T08:07:02.781Z,35
2016-10-24T08:08:02.803Z,35
2016-10-24T08:09:02.899Z,30
2016-10-24T08:10:02.941Z,45
2016-10-24T08:11:02.999Z,45
2016-10-24T08:12:03.048Z,45
2016-10-24T08:13:03.104Z,45
2016-10-24T08:14:03.386Z,45
2016-10-24T08:15:03.192Z,40
2016-10-24T08:16:03.255Z,40
2016-10-24T08:17:03.339Z,40
2016-10-24T08:18:03.396Z,45
2016-10-24T08:19:03.442Z,35
2016-10-24T08:20:03.492Z,35
2016-10-24T08:21:03.852Z,40
2016-10-24T08:22:03.615Z,35
2016-10-24T08:23:03.650Z,35
2016-10-24T08:24:03.710Z,30
2016-10-24T08:25:03.815Z,30
2016-10-24T08:26:03.829Z,35
2016-10-24T08:27:03.882Z,40
2016-10-24T08:28:03.929Z,40
2016-10-24T08:29:03.999Z,45
2016-10-24T08:30:04.065Z,35
2016-10-24T08:31:04.106Z,45
2016-10-24T08:32:04.171Z,50
2016-10-24T08:33:04.222Z,50
2016-10-24T08:34:04.285Z,45
2016-10-24T08:35:04.342Z,45
2016-10-24T08:36:04.386Z,50
2016-10-24T08:37:04.444Z,50
2016-10-24T08:38:04.486Z,50
2016-10-24T08:39:04.567Z,50
2016-10-24T08:40:04.609Z,50
2016-10-24T08:41:04.662Z,50
2016-10-24T08:42:04.711Z,55
2016-10-24T08:43:04.786Z,50
2016-10-24T08:44:04.837Z,50
2016-10-24T08:45:04.901Z,50
2016-10-24T08:46:04.923Z,40
2016-10-24T08:47:05.005Z,45
2016-10-24T08:48:05.045Z,45
2016-10-24T08:49:05.138Z,35
2016-10-24T08:50:05.155Z,45
2016-10-24T08:51:05.197Z,45
2016-10-24T08:52:05.555Z,50
2016-10-24T08:53:05.339Z,50
2016-10-24T08:54:05.375Z,45
2016-10-24T08:55:05.535Z,50
2016-10-24T08:56:05.515Z,50
2016-10-24T08:57:05.565Z,55
2016-10-24T08:58:05.587Z,60
2016-10-24T08:59:05.690Z,60
2016-10-24T09:00:05.722Z,60
2016-10-24T09:01:05.799Z,60
2016-10-24T09:02:05.833Z,60
2016-10-24T09:03:05.871Z,55
2016-10-24T09:04:06.263Z,50
2016-10-24T09:05:06.195Z,50
2016-10-24T09:06:06.080Z,45
2016-10-24T09:07:06.151Z,45
2016-10-24T09:08:06.155Z,50
2016-10-24T09:09:06.220Z,50
2016-10-24T09:10:06.353Z,45
2016-10-24T09:11:06.346Z,50
2016-10-24T09:12:06.387Z,50
2016-10-24T09:13:06.474Z,50
2016-10-24T09:14:06.566Z,50
2016-10-24T09:15:06.574Z,55
2016-10-24T09:16:06.623Z,60
2016-10-24T09:17:06.657Z,60
2016-10-24T09:18:06.733Z,60
2016-10-24T09:19:06.758Z,60
2016-10-24T09:20:06.814Z,65
2016-10-24T09:21:06.866Z,60
2016-10-24T09:22:06.931Z,60
2016-10-24T09:23:07.000Z,60
2016-10-24T09:24:07.031Z,55
2016-10-24T09:25:07.115Z,50
2016-10-24T09:26:07.151Z,50
2016-10-24T09:27:07.235Z,50
2016-10-24T09:28:07.317Z,50
2016-10-24T09:29:07.345Z,50
2016-10-24T09:30:07.391Z,50
2016-10-24T09:31:07.450Z,50
2016-10-24T09:32:07.504Z,55
2016-10-24T09:33:07.567Z,55
2016-10-24T09:34:07.601Z,55
2016-10-24T09:35:07.677Z,55
2016-10-24T09:36:07.717Z,55
2016-10-24T09:37:08.072Z,55
2016-10-24T09:38:07.811Z,60
2016-10-24T09:39:07.879Z,60
2016-10-24T09:40:07.934Z,65
2016-10-24T09:41:08.003Z,70
2016-10-24T09:42:08.071Z,70
2016-10-24T09:43:08.444Z,65
2016-10-24T09:44:08.161Z,65
2016-10-24T09:45:08.210Z,65
2016-10-24T09:46:08.283Z,60
2016-10-24T09:47:08.337Z,60
2016-10-24T09:48:08.394Z,60
2016-10-24T09:49:08.438Z,60
2016-10-24T09:50:08.497Z,60
2016-10-24T09:51:08.561Z,55
2016-10-24T09:52:08.599Z,50
2016-10-24T09:53:08.657Z,50
2016-10-24T09:54:08.751Z,50
2016-10-24T09:55:08.786Z,55
2016-10-24T09:56:08.810Z,55
2016-10-24T09:57:08.884Z,55
2016-10-24T09:58:08.943Z,55
2016-10-24T09:59:08.993Z,55
2016-10-24T10:00:09.056Z,55
2016-10-24T10:01:09.147Z,55
2016-10-24T10:02:09.136Z,55
2016-10-24T10:03:09.217Z,55
2016-10-24T10:04:09.313Z,55
2016-10-24T10:05:09.324Z,55
2016-10-24T10:06:09.380Z,55
2016-10-24T10:07:09.466Z,55
2016-10-24T10:08:09.499Z,55
2016-10-24T10:09:09.540Z,60
2016-10-24T10:10:09.622Z,60
2016-10-24T10:11:09.679Z,65
2016-10-24T10:12:09.730Z,65
2016-10-24T10:13:09.796Z,60
2016-10-24T10:14:09.862Z,60
2016-10-24T10:15:09.891Z,60
2016-10-24T10:16:09.937Z,60
2016-10-24T10:17:10.005Z,65
2016-10-24T10:18:10.051Z,70
2016-10-24T10:19:10.122Z,75
2016-10-24T10:20:10.160Z,80
2016-10-24T10:21:10.217Z,85
2016-10-24T10:22:10.254Z,90
2016-10-24T10:23:10.338Z,85
2016-10-24T10:24:10.390Z,85
2016-10-24T10:25:10.452Z,90
2016-10-24T10:26:10.479Z,85
2016-10-24T10:27:10.583Z,90
2016-10-24T10:28:10.604Z,95
2016-10-24T10:29:10.653Z,90
2016-10-24T10:30:10.709Z,90
2016-10-24T10:31:10.772Z,100
2016-10-24T10:32:10.826Z,100
2016-10-24T10:33:10.884Z,85
2016-10-24T10:34:10.963Z,100
2016-10-24T10:35:10.986Z,100
2016-10-24T10:36:11.051Z,85
2016-10-24T10:37:11.096Z,100
2016-10-24T10:38:11.166Z,90
2016-10-24T10:39:11.205Z,95
2016-10-24T10:40:11.269Z,90
2016-10-24T10:41:11.321Z,100
2016-10-24T10:42:11.354Z,95
2016-10-24T10:43:11.429Z,80
2016-10-24T10:44:11.493Z,85
2016-10-24T10:45:11.554Z,90
2016-10-24T10:46:11.603Z,115
2016-10-24T10:47:11.700Z,120
2016-10-24T10:48:11.713Z,85
2016-10-24T10:49:11.760Z,85
2016-10-24T10:50:11.801Z,130
2016-10-24T10:51:11.860Z,180
2016-10-24T10:52:11.925Z,290
2016-10-24T10:53:11.989Z,310
2016-10-24T10:54:12.360Z,455
2016-10-24T10:55:12.101Z,540
2016-10-24T10:56:12.175Z,560
2016-10-24T10:57:12.297Z,425
2016-10-24T10:58:12.253Z,405
2016-10-24T10:59:12.330Z,265
2016-10-24T11:00:12.383Z,220
2016-10-24T11:01:12.724Z,205
2016-10-24T11:02:12.495Z,230
2016-10-24T11:03:12.584Z,215
2016-10-24T11:04:12.586Z,245
2016-10-24T11:05:12.648Z,310
2016-10-24T11:06:12.710Z,375
2016-10-24T11:07:12.769Z,385
2016-10-24T11:08:12.822Z,335
2016-10-24T11:09:12.883Z,300
2016-10-24T11:10:12.949Z,355
2016-10-24T11:11:12.976Z,355
2016-10-24T11:12:13.060Z,330
2016-10-24T11:13:13.085Z,330
2016-10-24T11:14:13.137Z,280
2016-10-24T11:15:13.263Z,325
2016-10-24T11:16:13.256Z,295
2016-10-24T11:17:13.349Z,405
2016-10-24T11:18:13.365Z,400
2016-10-24T11:19:13.436Z,380
2016-10-24T11:20:13.513Z,380
2016-10-24T11:21:13.545Z,405
2016-10-24T11:22:13.617Z,350
2016-10-24T11:23:13.644Z,285
2016-10-24T11:24:13.735Z,415
2016-10-24T11:25:13.751Z,345
2016-10-24T11:26:13.825Z,480
2016-10-24T11:27:13.883Z,505
2016-10-24T11:28:13.931Z,545
2016-10-24T11:29:13.984Z,320
2016-10-24T11:30:14.079Z,270
2016-10-24T11:31:14.106Z,375
2016-10-24T11:32:14.191Z,380
2016-10-24T11:33:14.228Z,390
2016-10-24T11:34:14.290Z,365
2016-10-24T11:35:14.330Z,175
2016-10-24T11:36:14.360Z,250
2016-10-24T11:37:14.423Z,260
2016-10-24T11:38:14.487Z,455
2016-10-24T11:39:14.566Z,430
2016-10-24T11:40:14.608Z,415
2016-10-24T11:41:14.690Z,385
2016-10-24T11:42:14.722Z,280
2016-10-24T11:43:14.820Z,290
2016-10-24T11:44:14.824Z,245
2016-10-24T11:45:14.893Z,280
2016-10-24T11:46:14.963Z,300
2016-10-24T11:47:14.986Z,325
2016-10-24T11:48:15.047Z,295
2016-10-24T11:49:15.121Z,290
2016-10-24T11:50:15.152Z,370
2016-10-24T11:51:15.221Z,460
2016-10-24T11:52:15.269Z,270
2016-10-24T11:53:15.326Z,405
2016-10-24T11:54:15.382Z,415
2016-10-24T11:55:15.469Z,370
2016-10-24T11:56:15.523Z,255
2016-10-24T11:57:15.556Z,375
2016-10-24T11:58:15.648Z,325
2016-10-24T11:59:15.654Z,305
2016-10-24T12:00:15.725Z,450
2016-10-24T12:01:15.795Z,510
2016-10-24T12:02:15.838Z,550
2016-10-24T12:03:15.896Z,630
2016-10-24T12:04:15.956Z,570
2016-10-24T12:05:16.016Z,595
2016-10-24T12:06:16.039Z,815
2016-10-24T12:07:16.100Z,885
2016-10-24T12:08:16.166Z,855
2016-10-24T12:09:16.226Z,920
2016-10-24T12:10:16.271Z,815
2016-10-24T12:11:16.334Z,430
2016-10-24T12:12:16.404Z,400
2016-10-24T12:13:16.450Z,620
2016-10-24T12:14:16.494Z,405
2016-10-24T12:15:16.572Z,505
2016-10-24T12:16:16.602Z,500
2016-10-24T12:17:16.654Z,465
2016-10-24T12:18:16.750Z,540
2016-10-24T12:19:17.141Z,395
2016-10-24T12:20:16.835Z,400
2016-10-24T12:21:16.917Z,345
2016-10-24T12:22:16.958Z,330
2016-10-24T12:23:17.018Z,370
2016-10-24T12:24:17.060Z,405
2016-10-24T12:25:17.152Z,470
2016-10-24T12:26:17.166Z,820
2016-10-24T12:27:17.410Z,1235
2016-10-24T12:28:17.289Z,1115
2016-10-24T12:29:17.342Z,730
2016-10-24T12:30:17.402Z,1015
2016-10-24T12:31:17.479Z,1125
2016-10-24T12:32:17.512Z,925
2016-10-24T12:33:17.584Z,670
2016-10-24T12:34:17.624Z,625
2016-10-24T12:35:17.693Z,660
2016-10-24T12:36:17.755Z,635
2016-10-24T12:37:17.793Z,675
2016-10-24T12:38:17.858Z,795
2016-10-24T12:39:17.924Z,790
2016-10-24T12:40:17.971Z,850
2016-10-24T12:41:18.018Z,645
2016-10-24T12:42:18.073Z,990
2016-10-24T12:43:18.135Z,1120
2016-10-24T12:44:18.183Z,1140
2016-10-24T12:45:18.220Z,1095
2016-10-24T12:46:18.289Z,1070
2016-10-24T12:47:18.355Z,1120
2016-10-24T12:48:18.402Z,1015
2016-10-24T12:49:18.474Z,920
2016-10-24T12:50:18.512Z,1050
2016-10-24T12:51:18.603Z,1510
2016-10-24T12:52:18.620Z,1185
2016-10-24T12:53:18.700Z,855
2016-10-24T12:54:18.748Z,585
2016-10-24T12:55:18.792Z,485
2016-10-24T12:56:18.866Z,410
2016-10-24T12:57:18.909Z,395
2016-10-24T12:58:18.978Z,390
2016-10-24T12:59:19.031Z,405
2016-10-24T13:00:19.067Z,455
2016-10-24T13:01:19.146Z,500
2016-10-24T13:02:19.182Z,600
2016-10-24T13:03:19.232Z,1065
2016-10-24T13:04:19.302Z,1370
2016-10-24T13:05:19.356Z,1160
2016-10-24T13:06:19.429Z,900
2016-10-24T13:07:19.504Z,655
2016-10-24T13:08:19.545Z,520
2016-10-24T13:09:19.573Z,455
2016-10-24T13:10:19.672Z,370
2016-10-24T13:11:19.706Z,370
2016-10-24T13:12:19.756Z,335
2016-10-24T13:13:19.805Z,205
2016-10-24T13:14:19.876Z,295
2016-10-24T13:15:19.914Z,235
2016-10-24T13:16:19.986Z,570
2016-10-24T13:17:20.022Z,740
2016-10-24T13:18:20.074Z,690
2016-10-24T13:19:20.152Z,435
2016-10-24T13:20:20.211Z,205
2016-10-24T13:21:20.233Z,140
2016-10-24T13:22:20.323Z,125
2016-10-24T13:23:20.394Z,120
2016-10-24T13:24:20.417Z,95
2016-10-24T13:25:20.459Z,95
2016-10-24T13:26:20.561Z,85
2016-10-24T13:27:20.594Z,70
2016-10-24T13:28:20.675Z,60
2016-10-24T13:29:20.691Z,55
2016-10-24T13:30:20.889Z,50
2016-10-24T13:31:20.835Z,50
2016-10-24T13:32:20.869Z,50
2016-10-24T13:33:20.910Z,50
2016-10-24T13:34:21.004Z,50
2016-10-24T13:35:21.041Z,60
2016-10-24T13:36:21.098Z,60
2016-10-24T13:37:21.152Z,65
2016-10-24T13:38:21.204Z,65
2016-10-24T13:39:21.251Z,65
2016-10-24T13:40:21.507Z,60
2016-10-24T13:41:21.371Z,60
2016-10-24T13:42:21.452Z,70
2016-10-24T13:43:21.496Z,65
2016-10-24T13:44:21.543Z,65
2016-10-24T13:45:21.628Z,65
2016-10-24T13:46:21.679Z,65
2016-10-24T13:47:21.725Z,60
2016-10-24T13:48:21.804Z,60
2016-10-24T13:49:21.812Z,60
2016-10-24T13:50:21.871Z,60
2016-10-24T13:51:21.957Z,55
2016-10-24T13:52:21.988Z,60
2016-10-24T13:53:22.066Z,60
2016-10-24T13:54:22.121Z,55
2016-10-24T13:55:22.175Z,55
2016-10-24T13:56:22.224Z,55
2016-10-24T13:57:22.270Z,55
2016-10-24T13:58:22.327Z,55
2016-10-24T13:59:22.392Z,55
2016-10-24T14:00:22.440Z,55
2016-10-24T14:01:22.516Z,50
2016-10-24T14:02:22.563Z,50
2016-10-24T14:03:22.642Z,50
2016-10-24T14:04:22.682Z,50
2016-10-24T14:05:22.738Z,45
2016-10-24T14:06:22.815Z,45
2016-10-24T14:07:22.857Z,45
2016-10-24T14:08:22.892Z,40
2016-10-24T14:09:22.956Z,40
2016-10-24T14:10:23.007Z,40
2016-10-24T14:11:23.065Z,40
2016-10-24T14:12:23.129Z,40
2016-10-24T14:13:23.203Z,40
2016-10-24T14:14:23.239Z,40
2016-10-24T14:15:23.277Z,40
2016-10-24T14:16:23.353Z,40
2016-10-24T14:17:23.395Z,40
2016-10-24T14:18:23.465Z,40
2016-10-24T14:19:23.495Z,40
2016-10-24T14:20:23.557Z,35
2016-10-24T14:21:23.628Z,35
2016-10-24T14:22:23.669Z,30
2016-10-24T14:23:23.735Z,30
2016-10-24T14:24:23.782Z,30